createdAt,value
2024-05-09T00:00:36.399Z,15.96
2024-05-09T00:03:08.380Z,15.97
2024-05-09T00:05:37.082Z,15.80
2024-05-09T00:08:05.397Z,15.95
2024-05-09T00:10:36.994Z,15.97
2024-05-09T00:13:08.276Z,15.98
2024-05-09T00:15:36.687Z,15.96
2024-05-09T00:18:06.264Z,15.94
2024-05-09T00:20:38.870Z,15.90
2024-05-09T00:23:12.347Z,15.86
2024-05-09T00:25:42.948Z,15.82
2024-05-09T00:28:11.977Z,15.79
2024-05-09T00:30:39.565Z,15.75
2024-05-09T00:33:09.138Z,15.72
2024-05-09T00:35:38.910Z,15.61
2024-05-09T00:38:12.582Z,15.51
2024-05-09T00:40:42.734Z,15.45
2024-05-09T00:43:13.420Z,15.45
2024-05-09T00:45:42.784Z,15.43
2024-05-09T00:48:14.319Z,15.44
2024-05-09T00:50:45.696Z,15.41
2024-05-09T00:53:16.023Z,15.40
2024-05-09T00:55:44.956Z,15.40
2024-05-09T00:58:16.543Z,15.41
2024-05-09T01:00:43.806Z,15.40
2024-05-09T01:03:12.593Z,15.40
2024-05-09T01:05:41.410Z,15.38
2024-05-09T01:08:09.334Z,15.38
2024-05-09T01:10:37.317Z,15.39
2024-05-09T01:13:04.949Z,15.40
2024-05-09T01:15:31.770Z,15.39
2024-05-09T01:18:01.147Z,15.38
2024-05-09T01:20:37.473Z,15.35
2024-05-09T01:23:09.953Z,15.33
2024-05-09T01:25:37.123Z,15.33
2024-05-09T01:28:04.075Z,15.34
2024-05-09T01:30:35.384Z,15.35
2024-05-09T01:33:07.416Z,15.36
2024-05-09T01:35:36.014Z,15.35
2024-05-09T01:38:02.912Z,15.35
2024-05-09T01:40:37.179Z,15.32
2024-05-09T01:43:07.001Z,15.29
2024-05-09T01:45:33.922Z,15.27
2024-05-09T01:48:01.039Z,15.25
2024-05-09T01:50:37.664Z,15.24
2024-05-09T01:53:10.329Z,15.22
2024-05-09T01:55:37.286Z,15.19
2024-05-09T01:58:04.082Z,15.19
2024-05-09T02:00:38.711Z,15.16
2024-05-09T02:03:11.452Z,15.12
2024-05-09T02:05:41.048Z,15.08
2024-05-09T02:08:12.217Z,15.06
2024-05-09T02:10:39.009Z,15.02
2024-05-09T02:13:07.747Z,15.02
2024-05-09T02:15:34.436Z,14.99
2024-05-09T02:18:01.320Z,14.98
2024-05-09T02:20:35.204Z,14.96
2024-05-09T02:23:05.154Z,14.93
2024-05-09T02:25:32.667Z,14.89
2024-05-09T02:27:59.695Z,14.83
2024-05-09T02:30:36.176Z,14.76
2024-05-09T02:33:08.096Z,14.70
2024-05-09T02:35:35.652Z,14.67
2024-05-09T02:38:02.512Z,14.63
2024-05-09T02:40:36.536Z,14.58
2024-05-09T02:43:06.642Z,14.55
2024-05-09T02:45:33.634Z,14.49
2024-05-09T02:48:01.538Z,14.46
2024-05-09T02:50:34.727Z,14.42
2024-05-09T02:53:06.206Z,14.37
2024-05-09T02:55:34.468Z,14.34
2024-05-09T02:58:01.284Z,14.31
2024-05-09T03:00:36.701Z,14.28
2024-05-09T03:03:09.832Z,14.23
2024-05-09T03:05:39.220Z,14.19
2024-05-09T03:08:06.339Z,14.16
2024-05-09T03:10:36.544Z,14.11
2024-05-09T03:13:12.924Z,14.08
2024-05-09T03:15:41.005Z,14.05
2024-05-09T03:18:09.780Z,14.02
2024-05-09T03:20:38.064Z,13.97
2024-05-09T03:23:08.088Z,13.94
2024-05-09T03:25:35.984Z,13.91
2024-05-09T03:28:02.783Z,13.86
2024-05-09T03:30:38.368Z,13.84
2024-05-09T03:33:11.060Z,13.79
2024-05-09T03:35:38.292Z,13.78
2024-05-09T03:38:05.045Z,13.76
2024-05-09T03:40:31.842Z,13.73
2024-05-09T03:42:58.977Z,13.71
2024-05-09T03:45:25.750Z,13.71
2024-05-09T03:47:53.148Z,13.69
2024-05-09T03:50:26.497Z,13.70
2024-05-09T03:53:01.082Z,13.69
2024-05-09T03:55:28.436Z,13.71
2024-05-09T03:57:55.186Z,13.71
2024-05-09T04:00:30.006Z,13.73
2024-05-09T04:03:02.335Z,13.74
2024-05-09T04:05:30.936Z,13.76
2024-05-09T04:07:58.338Z,13.80
2024-05-09T04:10:32.426Z,13.82
2024-05-09T04:13:01.098Z,13.83
2024-05-09T04:15:27.895Z,13.86
2024-05-09T04:17:54.796Z,13.88
2024-05-09T04:20:32.820Z,13.88
2024-05-09T04:23:06.006Z,13.85
2024-05-09T04:25:32.893Z,13.85
2024-05-09T04:27:59.684Z,13.86
2024-05-09T04:30:35.935Z,13.87
2024-05-09T04:33:07.679Z,13.88
2024-05-09T04:35:36.163Z,13.89
2024-05-09T04:38:03.754Z,13.90
2024-05-09T04:40:34.387Z,13.92
2024-05-09T04:43:04.500Z,13.94
2024-05-09T04:45:31.439Z,13.93
2024-05-09T04:47:58.710Z,13.92
2024-05-09T04:50:35.351Z,13.91
2024-05-09T04:53:05.956Z,13.90
2024-05-09T04:55:33.280Z,13.90
2024-05-09T04:58:00.179Z,13.90
2024-05-09T05:00:34.747Z,13.88
2024-05-09T05:03:07.603Z,13.90
2024-05-09T05:05:38.031Z,13.91
2024-05-09T05:08:05.506Z,13.94
2024-05-09T05:10:36.161Z,13.95
2024-05-09T05:13:21.383Z,13.99
2024-05-09T05:15:50.836Z,14.02
2024-05-09T05:18:17.859Z,14.08
2024-05-09T05:20:45.186Z,14.10
2024-05-09T05:23:14.148Z,14.14
2024-05-09T05:25:42.056Z,14.16
2024-05-09T05:28:09.103Z,14.20
2024-05-09T05:30:37.881Z,14.21
2024-05-09T05:33:06.329Z,14.25
2024-05-09T05:35:34.566Z,14.27
2024-05-09T05:38:01.821Z,14.26
2024-05-09T05:40:36.191Z,14.29
2024-05-09T05:43:06.239Z,14.28
2024-05-09T05:45:32.993Z,14.27
2024-05-09T05:48:00.440Z,14.31
2024-05-09T05:50:34.943Z,14.34
2024-05-09T05:53:06.464Z,14.39
2024-05-09T05:55:33.499Z,14.45
2024-05-09T05:58:01.809Z,14.50
2024-05-09T06:00:34.892Z,14.57
2024-05-09T06:03:05.650Z,14.60
2024-05-09T06:05:32.935Z,14.63
2024-05-09T06:07:59.869Z,14.70
2024-05-09T06:10:35.035Z,14.74
2024-05-09T06:13:05.866Z,14.80
2024-05-09T06:15:32.587Z,14.87
2024-05-09T06:17:59.567Z,14.95
2024-05-09T06:20:34.908Z,14.99
2024-05-09T06:23:04.786Z,15.02
2024-05-09T06:25:31.858Z,15.12
2024-05-09T06:28:00.333Z,15.20
2024-05-09T06:30:36.557Z,15.30
2024-05-09T06:33:07.697Z,15.40
2024-05-09T06:35:35.098Z,15.50
2024-05-09T06:38:02.167Z,15.58
2024-05-09T06:40:37.049Z,15.67
2024-05-09T06:43:11.319Z,15.64
2024-05-09T06:45:39.898Z,15.64
2024-05-09T06:48:09.242Z,15.71
2024-05-09T06:50:38.481Z,15.78
2024-05-09T06:53:08.497Z,15.93
2024-05-09T06:55:36.700Z,16.10
2024-05-09T06:58:06.206Z,16.29
2024-05-09T07:00:38.923Z,16.49
2024-05-09T07:03:11.397Z,16.75
2024-05-09T07:05:39.308Z,17.03
2024-05-09T07:08:06.827Z,17.62
2024-05-09T07:10:35.877Z,18.19
2024-05-09T07:13:03.541Z,18.58
2024-05-09T07:15:30.289Z,18.88
2024-05-09T07:17:57.393Z,19.01
2024-05-09T07:20:32.292Z,19.12
2024-05-09T07:23:02.828Z,19.25
2024-05-09T07:25:30.012Z,19.36
2024-05-09T07:27:56.965Z,19.41
2024-05-09T07:30:32.591Z,19.34
2024-05-09T07:33:02.288Z,19.35
2024-05-09T07:35:30.031Z,19.37
2024-05-09T07:37:57.095Z,19.33
2024-05-09T07:40:32.723Z,19.29
2024-05-09T07:43:05.122Z,19.22
2024-05-09T07:45:48.188Z,19.14
2024-05-09T07:53:38.684Z,19.26
2024-05-09T07:56:07.932Z,19.26
2024-05-09T07:58:35.769Z,19.20
2024-05-09T08:01:02.824Z,19.18
2024-05-09T08:03:29.870Z,19.17
2024-05-09T08:05:56.917Z,19.20
2024-05-09T08:08:23.685Z,19.28
2024-05-09T08:10:51.062Z,19.36
2024-05-09T08:13:17.902Z,19.45
2024-05-09T08:15:44.962Z,19.60
2024-05-09T08:18:12.023Z,19.64
2024-05-09T08:20:39.872Z,19.67
2024-05-09T08:23:07.150Z,19.75
2024-05-09T08:25:33.960Z,19.84
2024-05-09T08:28:00.858Z,19.91
2024-05-09T08:30:33.704Z,19.93
2024-05-09T08:33:04.483Z,19.97
2024-05-09T08:35:31.990Z,20.22
2024-05-09T08:37:59.129Z,20.42
2024-05-09T08:40:34.054Z,20.52
2024-05-09T08:43:07.935Z,20.58
2024-05-09T08:45:35.961Z,20.66
2024-05-09T08:48:07.122Z,20.87
2024-05-09T08:50:39.093Z,21.14
2024-05-09T08:53:08.192Z,21.37
2024-05-09T08:55:39.433Z,21.63
2024-05-09T08:58:12.749Z,21.86
2024-05-09T09:00:42.244Z,22.01
2024-05-09T09:03:09.632Z,22.03
2024-05-09T09:05:39.004Z,22.13
2024-05-09T09:08:08.046Z,22.38
2024-05-09T09:10:35.590Z,22.60
2024-05-09T09:13:05.094Z,22.78
2024-05-09T09:15:33.042Z,23.00
2024-05-09T09:18:01.093Z,23.29
2024-05-09T09:20:35.940Z,23.54
2024-05-09T09:23:04.759Z,23.75
2024-05-09T09:25:31.925Z,23.83
2024-05-09T09:27:59.321Z,23.90
2024-05-09T09:30:35.236Z,23.91
2024-05-09T09:33:06.108Z,23.94
2024-05-09T09:35:33.907Z,24.04
2024-05-09T09:38:03.303Z,24.18
2024-05-09T09:40:35.837Z,24.31
2024-05-09T09:43:10.059Z,24.02
2024-05-09T09:45:38.318Z,23.79
2024-05-09T09:48:05.948Z,23.81
2024-05-09T09:50:35.363Z,23.95
2024-05-09T09:53:04.972Z,24.03
2024-05-09T09:55:32.652Z,24.13
2024-05-09T09:57:59.906Z,24.31
2024-05-09T10:00:32.935Z,24.50
2024-05-09T10:03:01.600Z,24.57
2024-05-09T10:05:29.903Z,24.57
2024-05-09T10:07:58.674Z,24.65
2024-05-09T10:10:31.660Z,24.75
2024-05-09T10:13:03.842Z,24.76
2024-05-09T10:15:45.570Z,24.77
2024-05-09T10:18:12.821Z,24.87
2024-05-09T10:20:42.650Z,25.05
2024-05-09T10:26:05.497Z,25.41
2024-05-09T10:28:35.492Z,25.57
2024-05-09T10:33:45.118Z,25.76
2024-05-09T10:36:13.783Z,25.82
2024-05-09T10:38:42.711Z,25.62
2024-05-09T10:41:09.643Z,25.55
2024-05-09T10:43:40.012Z,25.65
2024-05-09T10:46:07.692Z,25.71
2024-05-09T10:48:36.027Z,25.97
2024-05-09T10:51:04.014Z,26.21
2024-05-09T10:53:31.676Z,26.27
2024-05-09T10:56:00.766Z,26.39
2024-05-09T10:58:28.554Z,26.38
2024-05-09T11:00:56.340Z,26.44
2024-05-09T11:03:24.601Z,26.43
2024-05-09T11:05:52.684Z,26.41
2024-05-09T11:08:22.186Z,26.49
2024-05-09T11:10:54.116Z,26.52
2024-05-09T11:13:38.645Z,26.42
2024-05-09T11:16:16.306Z,26.34
2024-05-09T11:18:43.702Z,26.25
2024-05-09T11:21:13.422Z,26.26
2024-05-09T11:23:40.799Z,26.30
2024-05-09T11:26:07.791Z,26.35
2024-05-09T11:28:34.547Z,26.44
2024-05-09T11:31:07.903Z,26.41
2024-05-09T11:33:38.786Z,26.39
2024-05-09T11:36:07.118Z,26.51
2024-05-09T11:38:34.036Z,26.64
2024-05-09T11:41:01.654Z,26.73
2024-05-09T11:43:28.606Z,26.78
2024-05-09T11:45:57.212Z,26.81
2024-05-09T11:48:24.877Z,26.99
2024-05-09T11:50:51.826Z,27.17
2024-05-09T11:53:18.526Z,27.27
2024-05-09T11:55:45.298Z,27.23
2024-05-09T11:58:14.762Z,27.27
2024-05-09T12:00:41.664Z,27.19
2024-05-09T12:03:08.513Z,27.18
2024-05-09T12:05:35.338Z,27.21
2024-05-09T12:08:02.510Z,27.17
2024-05-09T12:10:33.755Z,27.03
2024-05-09T12:13:04.929Z,27.07
2024-05-09T12:15:33.255Z,27.11
2024-05-09T12:18:02.914Z,27.09
2024-05-09T12:20:37.504Z,27.14
2024-05-09T12:23:07.002Z,27.08
2024-05-09T12:25:33.933Z,27.02
2024-05-09T12:28:01.269Z,27.05
2024-05-09T12:30:35.682Z,27.11
2024-05-09T12:33:07.585Z,27.09
2024-05-09T12:35:34.673Z,27.11
2024-05-09T12:38:01.447Z,27.07
2024-05-09T12:40:35.572Z,27.10
2024-05-09T12:43:08.316Z,27.09
2024-05-09T12:45:36.202Z,27.14
2024-05-09T12:48:04.628Z,27.16
2024-05-09T12:50:33.663Z,27.12
2024-05-09T12:53:02.780Z,27.11
2024-05-09T12:55:36.610Z,27.12
2024-05-09T12:58:09.099Z,27.16
2024-05-09T13:00:36.272Z,27.08
2024-05-09T13:03:03.463Z,26.95
2024-05-09T13:05:30.597Z,26.93
2024-05-09T13:07:57.582Z,27.01
2024-05-09T13:10:31.597Z,26.99
2024-05-09T13:13:01.510Z,26.95
2024-05-09T13:15:30.179Z,26.97
2024-05-09T13:18:01.862Z,26.97
2024-05-09T13:20:33.761Z,27.05
2024-05-09T13:23:05.511Z,27.17
2024-05-09T13:25:34.810Z,27.18
2024-05-09T13:28:02.130Z,27.28
2024-05-09T13:30:37.717Z,27.34
2024-05-09T13:33:08.278Z,27.34
2024-05-09T13:35:36.035Z,27.34
2024-05-09T13:38:03.225Z,27.37
2024-05-09T13:40:34.376Z,27.36
2024-05-09T13:43:05.084Z,27.34
2024-05-09T13:45:32.246Z,27.16
2024-05-09T13:47:59.776Z,27.34
2024-05-09T13:50:33.657Z,27.34
2024-05-09T13:53:05.620Z,27.30
2024-05-09T13:55:33.478Z,27.27
2024-05-09T13:58:00.651Z,27.22
2024-05-09T14:00:40.646Z,27.14
2024-05-09T14:03:12.118Z,27.12
2024-05-09T14:05:39.051Z,27.08
2024-05-09T14:08:06.178Z,27.10
2024-05-09T14:10:33.121Z,27.13
2024-05-09T14:13:01.164Z,27.17
2024-05-09T14:15:28.173Z,27.11
2024-05-09T14:17:55.489Z,27.04
2024-05-09T14:20:30.512Z,26.95
2024-05-09T14:23:00.368Z,26.81
2024-05-09T14:25:28.670Z,26.77
2024-05-09T14:27:57.572Z,26.76
2024-05-09T14:30:31.047Z,26.68
2024-05-09T14:33:04.350Z,26.73
2024-05-09T14:35:31.374Z,26.78
2024-05-09T14:37:58.276Z,26.89
2024-05-09T14:40:36.588Z,27.03
2024-05-09T14:43:08.755Z,27.12
2024-05-09T14:45:35.846Z,27.09
2024-05-09T14:48:03.709Z,27.06
2024-05-09T14:50:36.189Z,27.04
2024-05-09T14:53:07.094Z,27.11
2024-05-09T14:55:37.480Z,27.15
2024-05-09T14:58:07.233Z,27.17
2024-05-09T15:00:36.679Z,26.93
2024-05-09T15:03:05.572Z,27.04
2024-05-09T15:05:32.412Z,27.00
2024-05-09T15:07:59.499Z,26.93
2024-05-09T15:10:34.084Z,26.91
2024-05-09T15:13:04.285Z,26.90
2024-05-09T15:15:31.326Z,26.90
2024-05-09T15:17:58.452Z,26.89
2024-05-09T15:20:33.056Z,26.88
2024-05-09T15:23:03.065Z,26.89
2024-05-09T15:25:30.069Z,26.84
2024-05-09T15:27:57.216Z,26.79
2024-05-09T15:30:30.321Z,26.76
2024-05-09T15:32:59.805Z,26.72
2024-05-09T15:35:26.730Z,26.61
2024-05-09T15:37:53.513Z,26.55
2024-05-09T15:40:30.459Z,26.51
2024-05-09T15:43:04.784Z,26.48
2024-05-09T15:45:32.149Z,26.42
2024-05-09T15:47:59.634Z,26.36
2024-05-09T15:50:36.186Z,26.30
2024-05-09T15:53:07.730Z,26.24
2024-05-09T15:55:35.521Z,26.23
2024-05-09T15:58:03.607Z,26.23
2024-05-09T16:00:38.332Z,26.22
2024-05-09T16:03:10.668Z,26.18
2024-05-09T16:05:38.315Z,26.14
2024-05-09T16:08:06.173Z,26.10
2024-05-09T16:10:34.609Z,26.05
2024-05-09T16:13:03.220Z,25.97
2024-05-09T16:15:30.902Z,25.87
2024-05-09T16:17:58.015Z,25.77
2024-05-09T16:20:34.442Z,25.71
2024-05-09T16:23:06.668Z,25.61
2024-05-09T16:25:33.561Z,25.56
2024-05-09T16:28:00.697Z,25.53
2024-05-09T16:30:34.087Z,25.47
2024-05-09T16:33:04.320Z,25.40
2024-05-09T16:35:32.011Z,25.16
2024-05-09T16:37:58.833Z,25.28
2024-05-09T16:40:34.442Z,25.25
2024-05-09T16:43:06.291Z,25.22
2024-05-09T16:45:33.637Z,25.19
2024-05-09T16:48:01.610Z,25.16
2024-05-09T16:50:33.005Z,25.11
2024-05-09T16:53:02.468Z,25.06
2024-05-09T16:55:29.291Z,24.99
2024-05-09T16:57:57.292Z,24.95
2024-05-09T17:00:35.425Z,24.92
2024-05-09T17:03:08.917Z,24.87
2024-05-09T17:05:36.500Z,24.86
2024-05-09T17:08:03.966Z,24.81
2024-05-09T17:10:33.769Z,24.79
2024-05-09T17:13:03.350Z,24.76
2024-05-09T17:15:31.872Z,24.72
2024-05-09T17:17:58.929Z,24.68
2024-05-09T17:20:32.672Z,24.64
2024-05-09T17:23:03.494Z,24.60
2024-05-09T17:25:30.317Z,24.61
2024-05-09T17:27:59.607Z,24.59
2024-05-09T17:30:32.418Z,24.38
2024-05-09T17:33:06.738Z,24.51
2024-05-09T17:35:33.832Z,24.48
2024-05-09T17:38:01.786Z,24.45
2024-05-09T17:40:33.651Z,24.42
2024-05-09T17:43:03.911Z,24.37
2024-05-09T17:45:31.926Z,24.33
2024-05-09T17:47:59.661Z,24.30
2024-05-09T17:50:33.444Z,24.25
2024-05-09T17:53:03.015Z,24.20
2024-05-09T17:55:30.359Z,24.13
2024-05-09T17:57:57.486Z,24.08
2024-05-09T18:00:33.723Z,24.00
2024-05-09T18:03:06.345Z,23.90
2024-05-09T18:05:34.968Z,23.83
2024-05-09T18:08:02.036Z,23.78
2024-05-09T18:10:35.449Z,23.71
2024-05-09T18:13:06.094Z,23.64
2024-05-09T18:15:33.353Z,23.59
2024-05-09T18:18:00.911Z,23.53
2024-05-09T18:20:37.889Z,23.48
2024-05-09T18:23:10.120Z,23.22
2024-05-09T18:25:36.825Z,23.34
2024-05-09T18:28:03.980Z,23.32
2024-05-09T18:30:34.558Z,23.27
2024-05-09T18:33:03.684Z,23.23
2024-05-09T18:35:30.950Z,23.17
2024-05-09T18:37:57.816Z,23.13
2024-05-09T18:40:32.722Z,23.07
2024-05-09T18:43:04.656Z,23.00
2024-05-09T18:45:32.403Z,22.94
2024-05-09T18:48:00.267Z,22.89
2024-05-09T18:50:34.657Z,22.78
2024-05-09T18:53:06.603Z,22.68
2024-05-09T18:55:33.610Z,22.60
2024-05-09T18:58:00.660Z,22.53
2024-05-09T19:00:34.450Z,22.44
2024-05-09T19:03:06.394Z,22.37
2024-05-09T19:05:36.052Z,22.30
2024-05-09T19:08:03.625Z,22.20
2024-05-09T19:10:34.385Z,22.12
2024-05-09T19:13:08.169Z,22.06
2024-05-09T19:15:38.590Z,21.98
2024-05-09T19:18:06.401Z,21.93
2024-05-09T19:20:35.093Z,21.85
2024-05-09T19:23:03.387Z,21.77
2024-05-09T19:25:30.471Z,21.73
2024-05-09T19:27:57.511Z,21.65
2024-05-09T19:30:33.020Z,21.57
2024-05-09T19:33:06.206Z,21.50
2024-05-09T19:35:33.064Z,21.41
2024-05-09T19:38:00.154Z,21.35
2024-05-09T19:40:31.535Z,21.27
2024-05-09T19:43:02.665Z,21.20
2024-05-09T19:45:30.294Z,21.12
2024-05-09T19:47:57.268Z,21.04
2024-05-09T19:50:32.383Z,20.97
2024-05-09T19:53:07.177Z,20.90
2024-05-09T19:55:34.170Z,20.84
2024-05-09T19:58:05.132Z,20.78
2024-05-09T20:00:36.697Z,20.71
2024-05-09T20:03:06.010Z,20.61
2024-05-09T20:05:33.498Z,20.51
2024-05-09T20:08:00.669Z,20.41
2024-05-09T20:10:32.152Z,20.35
2024-05-09T20:13:01.435Z,20.25
2024-05-09T20:15:28.157Z,20.19
2024-05-09T20:17:55.281Z,20.12
2024-05-09T20:22:51.984Z,20.01
2024-05-09T20:25:18.917Z,19.96
2024-05-09T20:27:45.851Z,19.90
2024-05-09T20:30:17.260Z,19.86
2024-05-09T20:32:51.577Z,19.79
2024-05-09T20:35:18.487Z,19.74
2024-05-09T20:37:45.192Z,19.70
2024-05-09T20:40:18.498Z,19.66
2024-05-09T20:42:52.061Z,19.59
2024-05-09T20:45:18.752Z,19.53
2024-05-09T20:47:45.470Z,19.47
2024-05-09T20:50:23.040Z,19.37
2024-05-09T20:52:55.415Z,19.27
2024-05-09T20:55:22.142Z,19.21
2024-05-09T20:57:49.011Z,19.13
2024-05-09T21:00:19.176Z,19.08
2024-05-09T21:02:52.071Z,19.01
2024-05-09T21:05:19.581Z,18.99
2024-05-09T21:07:46.431Z,18.97
2024-05-09T21:10:19.386Z,18.93
2024-05-09T21:12:49.621Z,18.65
2024-05-09T21:15:16.280Z,18.80
2024-05-09T21:17:43.141Z,18.77
2024-05-09T21:20:17.018Z,18.73
2024-05-09T21:22:47.259Z,18.67
2024-05-09T21:25:14.429Z,18.63
2024-05-09T21:27:41.270Z,18.57
2024-05-09T21:30:13.244Z,18.52
2024-05-09T21:32:45.597Z,18.43
2024-05-09T21:35:12.778Z,18.40
2024-05-09T21:37:39.464Z,18.36
2024-05-09T21:40:09.531Z,18.33
2024-05-09T21:42:40.355Z,18.29
2024-05-09T21:45:07.369Z,18.22
2024-05-09T21:47:34.962Z,18.16
2024-05-09T21:50:01.780Z,18.08
2024-05-09T21:52:28.644Z,18.04
2024-05-09T21:54:55.539Z,18.01
2024-05-09T21:57:22.403Z,17.95
2024-05-09T21:59:49.117Z,17.90
2024-05-09T22:02:16.123Z,17.86
2024-05-09T22:04:43.093Z,17.80
2024-05-09T22:07:10.109Z,17.70
2024-05-09T22:09:37.027Z,17.59
2024-05-09T22:12:04.810Z,17.53
2024-05-09T22:14:31.676Z,17.47
2024-05-09T22:16:58.356Z,17.44
2024-05-09T22:19:25.100Z,17.40
2024-05-09T22:21:51.838Z,17.39
2024-05-09T22:24:18.665Z,17.34
2024-05-09T22:26:45.759Z,17.30
2024-05-09T22:29:13.031Z,17.26
2024-05-09T22:31:39.703Z,17.21
2024-05-09T22:34:06.556Z,17.17
2024-05-09T22:36:33.590Z,17.13
2024-05-09T22:39:00.390Z,17.09
2024-05-09T22:41:27.804Z,17.03
2024-05-09T22:43:54.876Z,16.98
2024-05-09T22:46:22.147Z,16.93
2024-05-09T22:48:49.050Z,16.89
2024-05-09T22:51:16.126Z,16.84
2024-05-09T22:53:43.358Z,16.79
2024-05-09T22:56:14.382Z,16.74
2024-05-09T22:58:41.803Z,16.70
2024-05-09T23:01:15.712Z,16.64
2024-05-09T23:03:43.303Z,16.60
2024-05-09T23:06:10.148Z,16.57
2024-05-09T23:08:36.830Z,16.55
2024-05-09T23:11:03.998Z,16.50
2024-05-09T23:13:30.703Z,16.49
2024-05-09T23:15:58.037Z,16.44
2024-05-09T23:18:24.848Z,16.43
2024-05-09T23:20:51.992Z,16.40
2024-05-09T23:23:18.759Z,16.40
2024-05-09T23:25:45.552Z,16.37
2024-05-09T23:28:12.688Z,16.35
2024-05-09T23:30:41.067Z,16.32
2024-05-09T23:33:11.005Z,16.32
2024-05-09T23:35:38.731Z,16.30
2024-05-09T23:38:05.576Z,16.28
2024-05-09T23:43:02.629Z,16.24
2024-05-09T23:45:29.323Z,16.21
2024-05-09T23:47:56.262Z,16.17
2024-05-09T23:50:30.274Z,16.13
2024-05-09T23:53:00.682Z,16.10
2024-05-09T23:55:28.301Z,16.08
2024-05-09T23:57:55.192Z,16.05
